sensor_id;sensor_type;location;lat;lon;timestamp;P1;durP1;ratioP1;P2;durP2;ratioP2
7338;SDS011;33747;49.524;8.390;2023-02-15T00:01:33;104.57;;;34.40;;
7338;SDS011;33747;49.524;8.390;2023-02-15T00:03:59;134.75;;;33.15;;
7338;SDS011;33747;49.524;8.390;2023-02-15T00:06:25;96.30;;;33.05;;
7338;SDS011;33747;49.524;8.390;2023-02-15T00:08:50;102.53;;;34.38;;
7338;SDS011;33747;49.524;8.390;2023-02-15T00:11:16;109.25;;;33.20;;
7338;SDS011;33747;49.524;8.390;2023-02-15T00:14:06;92.75;;;32.90;;
7338;SDS011;33747;49.524;8.390;2023-02-15T00:16:33;118.80;;;32.58;;
7338;SDS011;33747;49.524;8.390;2023-02-15T00:18:58;187.13;;;32.97;;
7338;SDS011;33747;49.524;8.390;2023-02-15T00:21:26;155.70;;;31.63;;
7338;SDS011;33747;49.524;8.390;2023-02-15T00:23:55;157.43;;;33.08;;
7338;SDS011;33747;49.524;8.390;2023-02-15T00:26:21;159.45;;;33.88;;
7338;SDS011;33747;49.524;8.390;2023-02-15T00:28:48;175.85;;;35.65;;
7338;SDS011;33747;49.524;8.390;2023-02-15T00:31:13;143.60;;;32.10;;
7338;SDS011;33747;49.524;8.390;2023-02-15T00:33:39;164.73;;;35.33;;
7338;SDS011;33747;49.524;8.390;2023-02-15T00:36:05;144.75;;;33.90;;
7338;SDS011;33747;49.524;8.390;2023-02-15T00:38:32;112.07;;;32.80;;
7338;SDS011;33747;49.524;8.390;2023-02-15T00:40:58;138.90;;;33.90;;
7338;SDS011;33747;49.524;8.390;2023-02-15T00:43:25;141.73;;;30.80;;
7338;SDS011;33747;49.524;8.390;2023-02-15T00:45:51;124.95;;;32.13;;
7338;SDS011;33747;49.524;8.390;2023-02-15T00:48:17;108.45;;;31.10;;
7338;SDS011;33747;49.524;8.390;2023-02-15T00:50:46;94.25;;;31.85;;
7338;SDS011;33747;49.524;8.390;2023-02-15T00:53:13;154.27;;;34.33;;
7338;SDS011;33747;49.524;8.390;2023-02-15T00:55:38;163.57;;;33.67;;
7338;SDS011;33747;49.524;8.390;2023-02-15T00:58:05;127.72;;;32.63;;
7338;SDS011;33747;49.524;8.390;2023-02-15T01:00:31;124.50;;;33.25;;
7338;SDS011;33747;49.524;8.390;2023-02-15T01:02:56;170.95;;;31.65;;
7338;SDS011;33747;49.524;8.390;2023-02-15T01:05:22;80.82;;;31.30;;
7338;SDS011;33747;49.524;8.390;2023-02-15T01:07:47;140.38;;;32.75;;
7338;SDS011;33747;49.524;8.390;2023-02-15T01:10:13;156.35;;;33.10;;
7338;SDS011;33747;49.524;8.390;2023-02-15T01:12:38;150.50;;;31.17;;
7338;SDS011;33747;49.524;8.390;2023-02-15T01:15:03;131.15;;;31.33;;
7338;SDS011;33747;49.524;8.390;2023-02-15T01:17:29;143.27;;;31.52;;
7338;SDS011;33747;49.524;8.390;2023-02-15T01:19:55;137.10;;;31.27;;
7338;SDS011;33747;49.524;8.390;2023-02-15T01:22:21;126.97;;;33.05;;
7338;SDS011;33747;49.524;8.390;2023-02-15T01:24:48;156.25;;;33.42;;
7338;SDS011;33747;49.524;8.390;2023-02-15T01:27:14;128.93;;;30.73;;
7338;SDS011;33747;49.524;8.390;2023-02-15T01:29:39;145.90;;;30.23;;
7338;SDS011;33747;49.524;8.390;2023-02-15T01:32:04;92.82;;;31.67;;
7338;SDS011;33747;49.524;8.390;2023-02-15T01:34:30;71.80;;;30.05;;
7338;SDS011;33747;49.524;8.390;2023-02-15T01:36:55;91.05;;;32.60;;
7338;SDS011;33747;49.524;8.390;2023-02-15T01:39:21;96.30;;;32.83;;
7338;SDS011;33747;49.524;8.390;2023-02-15T01:41:46;94.22;;;32.58;;
7338;SDS011;33747;49.524;8.390;2023-02-15T01:47:11;66.68;;;29.27;;
7338;SDS011;33747;49.524;8.390;2023-02-15T01:49:39;140.82;;;30.88;;
7338;SDS011;33747;49.524;8.390;2023-02-15T01:52:09;156.40;;;31.70;;
7338;SDS011;33747;49.524;8.390;2023-02-15T01:54:35;154.75;;;30.58;;
7338;SDS011;33747;49.524;8.390;2023-02-15T01:57:03;73.43;;;27.10;;
7338;SDS011;33747;49.524;8.390;2023-02-15T01:59:30;107.95;;;28.75;;
7338;SDS011;33747;49.524;8.390;2023-02-15T02:01:57;94.15;;;29.27;;
7338;SDS011;33747;49.524;8.390;2023-02-15T02:04:26;108.30;;;29.98;;
7338;SDS011;33747;49.524;8.390;2023-02-15T02:07:07;97.85;;;29.35;;
7338;SDS011;33747;49.524;8.390;2023-02-15T02:09:33;73.15;;;29.65;;
7338;SDS011;33747;49.524;8.390;2023-02-15T02:11:59;70.22;;;29.48;;
7338;SDS011;33747;49.524;8.390;2023-02-15T02:14:25;68.10;;;27.42;;
7338;SDS011;33747;49.524;8.390;2023-02-15T02:16:56;59.50;;;28.58;;
7338;SDS011;33747;49.524;8.390;2023-02-15T02:19:49;75.72;;;31.00;;
7338;SDS011;33747;49.524;8.390;2023-02-15T02:25:19;96.32;;;32.22;;
7338;SDS011;33747;49.524;8.390;2023-02-15T02:30:46;82.60;;;26.60;;
7338;SDS011;33747;49.524;8.390;2023-02-15T02:33:31;109.10;;;29.30;;
7338;SDS011;33747;49.524;8.390;2023-02-15T02:36:15;83.80;;;29.42;;
7338;SDS011;33747;49.524;8.390;2023-02-15T02:38:57;75.45;;;25.70;;
7338;SDS011;33747;49.524;8.390;2023-02-15T02:44:26;93.32;;;28.10;;
7338;SDS011;33747;49.524;8.390;2023-02-15T02:49:51;76.03;;;29.20;;
7338;SDS011;33747;49.524;8.390;2023-02-15T03:00:05;85.88;;;27.05;;
7338;SDS011;33747;49.524;8.390;2023-02-15T03:02:35;74.68;;;30.23;;
7338;SDS011;33747;49.524;8.390;2023-02-15T03:05:05;71.50;;;28.40;;
7338;SDS011;33747;49.524;8.390;2023-02-15T03:07:34;61.45;;;27.55;;
7338;SDS011;33747;49.524;8.390;2023-02-15T03:10:01;72.05;;;27.45;;
7338;SDS011;33747;49.524;8.390;2023-02-15T03:12:33;70.57;;;28.65;;
7338;SDS011;33747;49.524;8.390;2023-02-15T03:15:07;66.35;;;26.40;;
7338;SDS011;33747;49.524;8.390;2023-02-15T03:17:40;85.95;;;28.75;;
7338;SDS011;33747;49.524;8.390;2023-02-15T03:20:14;58.45;;;27.10;;
7338;SDS011;33747;49.524;8.390;2023-02-15T03:23:15;64.15;;;28.00;;
7338;SDS011;33747;49.524;8.390;2023-02-15T03:25:39;62.33;;;28.40;;
7338;SDS011;33747;49.524;8.390;2023-02-15T03:28:11;62.75;;;27.20;;
7338;SDS011;33747;49.524;8.390;2023-02-15T03:30:39;61.10;;;26.83;;
7338;SDS011;33747;49.524;8.390;2023-02-15T03:33:05;55.47;;;27.33;;
7338;SDS011;33747;49.524;8.390;2023-02-15T03:35:45;58.92;;;27.02;;
7338;SDS011;33747;49.524;8.390;2023-02-15T03:38:33;61.13;;;28.13;;
7338;SDS011;33747;49.524;8.390;2023-02-15T03:41:09;62.65;;;26.83;;
7338;SDS011;33747;49.524;8.390;2023-02-15T03:48:56;65.57;;;27.90;;
7338;SDS011;33747;49.524;8.390;2023-02-15T03:51:25;66.43;;;26.92;;
7338;SDS011;33747;49.524;8.390;2023-02-15T03:54:00;56.83;;;26.00;;
7338;SDS011;33747;49.524;8.390;2023-02-15T03:56:27;56.72;;;25.13;;
7338;SDS011;33747;49.524;8.390;2023-02-15T03:58:52;54.60;;;25.90;;
7338;SDS011;33747;49.524;8.390;2023-02-15T04:01:38;55.15;;;23.00;;
7338;SDS011;33747;49.524;8.390;2023-02-15T04:04:25;50.80;;;25.08;;
7338;SDS011;33747;49.524;8.390;2023-02-15T04:06:52;50.78;;;24.10;;
7338;SDS011;33747;49.524;8.390;2023-02-15T04:09:17;50.03;;;22.45;;
7338;SDS011;33747;49.524;8.390;2023-02-15T04:12:01;47.55;;;21.92;;
7338;SDS011;33747;49.524;8.390;2023-02-15T04:14:27;39.50;;;20.83;;
7338;SDS011;33747;49.524;8.390;2023-02-15T04:17:11;41.83;;;21.85;;
7338;SDS011;33747;49.524;8.390;2023-02-15T04:19:36;39.30;;;20.63;;
7338;SDS011;33747;49.524;8.390;2023-02-15T04:22:20;41.05;;;21.38;;
7338;SDS011;33747;49.524;8.390;2023-02-15T04:25:04;44.53;;;21.15;;
7338;SDS011;33747;49.524;8.390;2023-02-15T04:27:39;45.80;;;22.00;;
7338;SDS011;33747;49.524;8.390;2023-02-15T04:30:10;45.05;;;21.58;;
7338;SDS011;33747;49.524;8.390;2023-02-15T04:32:37;43.33;;;20.13;;
7338;SDS011;33747;49.524;8.390;2023-02-15T04:35:03;42.22;;;20.13;;
7338;SDS011;33747;49.524;8.390;2023-02-15T04:37:30;38.97;;;19.80;;
7338;SDS011;33747;49.524;8.390;2023-02-15T04:39:56;35.83;;;18.30;;
7338;SDS011;33747;49.524;8.390;2023-02-15T04:42:23;38.85;;;19.98;;
7338;SDS011;33747;49.524;8.390;2023-02-15T04:44:49;33.55;;;18.77;;
7338;SDS011;33747;49.524;8.390;2023-02-15T04:47:14;45.88;;;19.85;;
7338;SDS011;33747;49.524;8.390;2023-02-15T04:49:40;38.58;;;19.92;;
7338;SDS011;33747;49.524;8.390;2023-02-15T04:52:05;43.63;;;20.25;;
7338;SDS011;33747;49.524;8.390;2023-02-15T04:54:30;45.95;;;21.25;;
7338;SDS011;33747;49.524;8.390;2023-02-15T04:56:56;46.00;;;21.92;;
7338;SDS011;33747;49.524;8.390;2023-02-15T04:59:21;42.38;;;20.38;;
7338;SDS011;33747;49.524;8.390;2023-02-15T05:01:47;36.85;;;18.52;;
7338;SDS011;33747;49.524;8.390;2023-02-15T05:04:12;33.55;;;19.75;;
7338;SDS011;33747;49.524;8.390;2023-02-15T05:06:37;34.28;;;19.83;;
7338;SDS011;33747;49.524;8.390;2023-02-15T05:09:03;34.88;;;18.27;;
7338;SDS011;33747;49.524;8.390;2023-02-15T05:11:28;41.17;;;19.63;;
7338;SDS011;33747;49.524;8.390;2023-02-15T05:13:53;40.55;;;19.85;;
7338;SDS011;33747;49.524;8.390;2023-02-15T05:16:19;38.13;;;19.77;;
7338;SDS011;33747;49.524;8.390;2023-02-15T05:18:44;34.95;;;18.23;;
7338;SDS011;33747;49.524;8.390;2023-02-15T05:21:10;31.40;;;17.63;;
7338;SDS011;33747;49.524;8.390;2023-02-15T05:23:35;39.35;;;18.40;;
7338;SDS011;33747;49.524;8.390;2023-02-15T05:26:01;40.15;;;18.63;;
7338;SDS011;33747;49.524;8.390;2023-02-15T05:28:45;34.42;;;18.15;;
7338;SDS011;33747;49.524;8.390;2023-02-15T05:31:14;33.70;;;18.92;;
7338;SDS011;33747;49.524;8.390;2023-02-15T05:33:43;37.17;;;20.27;;
7338;SDS011;33747;49.524;8.390;2023-02-15T05:36:09;30.95;;;17.40;;
7338;SDS011;33747;49.524;8.390;2023-02-15T05:38:35;31.60;;;18.67;;
7338;SDS011;33747;49.524;8.390;2023-02-15T05:41:02;36.78;;;20.38;;
7338;SDS011;33747;49.524;8.390;2023-02-15T05:43:29;36.53;;;19.50;;
7338;SDS011;33747;49.524;8.390;2023-02-15T05:45:57;33.33;;;18.58;;
7338;SDS011;33747;49.524;8.390;2023-02-15T05:48:24;35.95;;;19.65;;
7338;SDS011;33747;49.524;8.390;2023-02-15T05:51:00;32.85;;;18.98;;
7338;SDS011;33747;49.524;8.390;2023-02-15T05:53:30;34.40;;;18.90;;
7338;SDS011;33747;49.524;8.390;2023-02-15T05:55:57;34.65;;;19.50;;
7338;SDS011;33747;49.524;8.390;2023-02-15T05:58:26;39.47;;;20.83;;
7338;SDS011;33747;49.524;8.390;2023-02-15T06:00:51;37.20;;;19.27;;
7338;SDS011;33747;49.524;8.390;2023-02-15T06:03:17;38.95;;;20.88;;
7338;SDS011;33747;49.524;8.390;2023-02-15T06:05:42;39.00;;;20.05;;
7338;SDS011;33747;49.524;8.390;2023-02-15T06:08:08;33.88;;;19.30;;
7338;SDS011;33747;49.524;8.390;2023-02-15T06:10:33;42.60;;;20.38;;
7338;SDS011;33747;49.524;8.390;2023-02-15T06:12:59;34.83;;;20.38;;
7338;SDS011;33747;49.524;8.390;2023-02-15T06:15:24;39.72;;;20.00;;
7338;SDS011;33747;49.524;8.390;2023-02-15T06:17:49;35.72;;;20.67;;
7338;SDS011;33747;49.524;8.390;2023-02-15T06:20:15;44.00;;;22.35;;
7338;SDS011;33747;49.524;8.390;2023-02-15T06:22:40;36.00;;;19.83;;
7338;SDS011;33747;49.524;8.390;2023-02-15T06:25:05;39.22;;;19.45;;
7338;SDS011;33747;49.524;8.390;2023-02-15T06:27:34;35.15;;;19.88;;
7338;SDS011;33747;49.524;8.390;2023-02-15T06:30:00;33.40;;;19.67;;
7338;SDS011;33747;49.524;8.390;2023-02-15T06:32:25;34.63;;;19.45;;
7338;SDS011;33747;49.524;8.390;2023-02-15T06:34:50;38.88;;;20.92;;
7338;SDS011;33747;49.524;8.390;2023-02-15T06:37:16;40.17;;;20.58;;
7338;SDS011;33747;49.524;8.390;2023-02-15T06:39:41;37.88;;;20.50;;
7338;SDS011;33747;49.524;8.390;2023-02-15T06:42:07;35.05;;;18.70;;
7338;SDS011;33747;49.524;8.390;2023-02-15T06:44:33;36.20;;;18.25;;
7338;SDS011;33747;49.524;8.390;2023-02-15T06:46:58;35.70;;;19.40;;
7338;SDS011;33747;49.524;8.390;2023-02-15T06:49:24;35.92;;;19.98;;
7338;SDS011;33747;49.524;8.390;2023-02-15T06:51:49;36.25;;;19.83;;
7338;SDS011;33747;49.524;8.390;2023-02-15T06:54:14;33.53;;;18.02;;
7338;SDS011;33747;49.524;8.390;2023-02-15T06:56:40;28.33;;;16.60;;
7338;SDS011;33747;49.524;8.390;2023-02-15T06:59:05;32.42;;;17.77;;
7338;SDS011;33747;49.524;8.390;2023-02-15T07:01:30;27.67;;;18.40;;
7338;SDS011;33747;49.524;8.390;2023-02-15T07:03:56;32.17;;;16.92;;
7338;SDS011;33747;49.524;8.390;2023-02-15T07:06:21;28.88;;;17.42;;
7338;SDS011;33747;49.524;8.390;2023-02-15T07:08:53;32.05;;;17.23;;
7338;SDS011;33747;49.524;8.390;2023-02-15T07:11:18;32.38;;;17.30;;
7338;SDS011;33747;49.524;8.390;2023-02-15T07:14:02;26.33;;;16.65;;
7338;SDS011;33747;49.524;8.390;2023-02-15T07:16:28;29.77;;;16.90;;
7338;SDS011;33747;49.524;8.390;2023-02-15T07:18:53;30.23;;;18.75;;
7338;SDS011;33747;49.524;8.390;2023-02-15T07:21:18;32.75;;;17.48;;
7338;SDS011;33747;49.524;8.390;2023-02-15T07:23:44;30.83;;;16.88;;
7338;SDS011;33747;49.524;8.390;2023-02-15T07:26:09;30.20;;;17.20;;
7338;SDS011;33747;49.524;8.390;2023-02-15T07:28:35;30.45;;;17.13;;
7338;SDS011;33747;49.524;8.390;2023-02-15T07:31:01;30.98;;;18.17;;
7338;SDS011;33747;49.524;8.390;2023-02-15T07:33:27;33.47;;;18.33;;
7338;SDS011;33747;49.524;8.390;2023-02-15T07:35:58;38.95;;;17.13;;
7338;SDS011;33747;49.524;8.390;2023-02-15T07:38:26;30.73;;;18.13;;
7338;SDS011;33747;49.524;8.390;2023-02-15T07:40:57;29.90;;;17.80;;
7338;SDS011;33747;49.524;8.390;2023-02-15T07:43:23;28.17;;;17.98;;
7338;SDS011;33747;49.524;8.390;2023-02-15T07:45:48;29.83;;;16.70;;
7338;SDS011;33747;49.524;8.390;2023-02-15T07:48:14;30.73;;;18.77;;
7338;SDS011;33747;49.524;8.390;2023-02-15T07:50:39;32.45;;;16.55;;
7338;SDS011;33747;49.524;8.390;2023-02-15T07:53:05;29.83;;;16.95;;
7338;SDS011;33747;49.524;8.390;2023-02-15T07:55:30;33.17;;;18.02;;
7338;SDS011;33747;49.524;8.390;2023-02-15T07:57:56;31.95;;;19.52;;
7338;SDS011;33747;49.524;8.390;2023-02-15T08:00:21;38.25;;;20.10;;
7338;SDS011;33747;49.524;8.390;2023-02-15T08:02:55;35.25;;;19.80;;
7338;SDS011;33747;49.524;8.390;2023-02-15T08:05:40;27.88;;;16.48;;
7338;SDS011;33747;49.524;8.390;2023-02-15T08:08:06;25.55;;;16.33;;
7338;SDS011;33747;49.524;8.390;2023-02-15T08:10:32;28.38;;;16.20;;
7338;SDS011;33747;49.524;8.390;2023-02-15T08:13:17;30.67;;;17.42;;
7338;SDS011;33747;49.524;8.390;2023-02-15T08:15:49;35.08;;;19.73;;
7338;SDS011;33747;49.524;8.390;2023-02-15T08:18:15;27.23;;;15.52;;
7338;SDS011;33747;49.524;8.390;2023-02-15T08:20:40;35.00;;;18.20;;
7338;SDS011;33747;49.524;8.390;2023-02-15T08:23:05;29.65;;;18.45;;
7338;SDS011;33747;49.524;8.390;2023-02-15T08:25:31;39.17;;;17.38;;
7338;SDS011;33747;49.524;8.390;2023-02-15T08:27:56;33.50;;;18.73;;
7338;SDS011;33747;49.524;8.390;2023-02-15T08:30:21;30.85;;;16.75;;
7338;SDS011;33747;49.524;8.390;2023-02-15T08:32:47;29.02;;;17.58;;
7338;SDS011;33747;49.524;8.390;2023-02-15T08:35:13;30.42;;;17.40;;
7338;SDS011;33747;49.524;8.390;2023-02-15T08:37:38;35.50;;;18.92;;
7338;SDS011;33747;49.524;8.390;2023-02-15T08:40:04;33.33;;;19.10;;
7338;SDS011;33747;49.524;8.390;2023-02-15T08:42:32;33.47;;;16.98;;
7338;SDS011;33747;49.524;8.390;2023-02-15T08:44:58;31.77;;;17.90;;
7338;SDS011;33747;49.524;8.390;2023-02-15T08:47:23;36.35;;;19.42;;
7338;SDS011;33747;49.524;8.390;2023-02-15T08:49:48;27.30;;;17.08;;
7338;SDS011;33747;49.524;8.390;2023-02-15T08:52:14;30.25;;;17.52;;
7338;SDS011;33747;49.524;8.390;2023-02-15T08:54:39;35.28;;;20.00;;
7338;SDS011;33747;49.524;8.390;2023-02-15T08:57:05;32.05;;;19.65;;
7338;SDS011;33747;49.524;8.390;2023-02-15T08:59:32;31.67;;;19.17;;
7338;SDS011;33747;49.524;8.390;2023-02-15T09:01:58;31.30;;;18.63;;
7338;SDS011;33747;49.524;8.390;2023-02-15T09:04:23;34.00;;;18.98;;
7338;SDS011;33747;49.524;8.390;2023-02-15T09:06:49;29.60;;;17.50;;
7338;SDS011;33747;49.524;8.390;2023-02-15T09:09:16;35.15;;;19.80;;
7338;SDS011;33747;49.524;8.390;2023-02-15T09:11:42;31.10;;;19.33;;
7338;SDS011;33747;49.524;8.390;2023-02-15T09:14:13;32.03;;;19.55;;
7338;SDS011;33747;49.524;8.390;2023-02-15T09:16:40;29.30;;;18.17;;
7338;SDS011;33747;49.524;8.390;2023-02-15T09:19:06;39.28;;;19.13;;
7338;SDS011;33747;49.524;8.390;2023-02-15T09:21:32;31.58;;;17.90;;
7338;SDS011;33747;49.524;8.390;2023-02-15T09:24:02;32.63;;;20.10;;
7338;SDS011;33747;49.524;8.390;2023-02-15T09:26:30;32.85;;;19.42;;
7338;SDS011;33747;49.524;8.390;2023-02-15T09:28:57;30.83;;;19.13;;
7338;SDS011;33747;49.524;8.390;2023-02-15T09:31:26;33.50;;;18.85;;
7338;SDS011;33747;49.524;8.390;2023-02-15T09:33:53;27.95;;;18.60;;
7338;SDS011;33747;49.524;8.390;2023-02-15T09:36:20;32.38;;;18.70;;
7338;SDS011;33747;49.524;8.390;2023-02-15T09:39:00;32.53;;;18.90;;
7338;SDS011;33747;49.524;8.390;2023-02-15T09:52:46;27.63;;;17.40;;
7338;SDS011;33747;49.524;8.390;2023-02-15T09:55:37;26.42;;;16.73;;
7338;SDS011;33747;49.524;8.390;2023-02-15T10:06:24;24.85;;;15.30;;
7338;SDS011;33747;49.524;8.390;2023-02-15T10:25:53;30.25;;;16.23;;
7338;SDS011;33747;49.524;8.390;2023-02-15T10:28:51;27.15;;;16.77;;
7338;SDS011;33747;49.524;8.390;2023-02-15T10:34:19;29.05;;;16.65;;
7338;SDS011;33747;49.524;8.390;2023-02-15T10:37:05;29.15;;;16.85;;
7338;SDS011;33747;49.524;8.390;2023-02-15T10:42:54;29.95;;;17.42;;
7338;SDS011;33747;49.524;8.390;2023-02-15T10:51:19;29.38;;;19.17;;
7338;SDS011;33747;49.524;8.390;2023-02-15T10:54:05;27.50;;;18.08;;
7338;SDS011;33747;49.524;8.390;2023-02-15T10:56:56;33.50;;;19.60;;
7338;SDS011;33747;49.524;8.390;2023-02-15T11:04:46;32.50;;;18.95;;
7338;SDS011;33747;49.524;8.390;2023-02-15T11:07:17;44.80;;;21.42;;
7338;SDS011;33747;49.524;8.390;2023-02-15T11:12:14;35.78;;;21.60;;
7338;SDS011;33747;49.524;8.390;2023-02-15T11:17:14;41.30;;;24.17;;
7338;SDS011;33747;49.524;8.390;2023-02-15T11:19:50;37.53;;;22.10;;
7338;SDS011;33747;49.524;8.390;2023-02-15T11:22:30;41.10;;;23.88;;
7338;SDS011;33747;49.524;8.390;2023-02-15T11:24:57;37.92;;;24.08;;
7338;SDS011;33747;49.524;8.390;2023-02-15T11:27:24;39.30;;;24.27;;
7338;SDS011;33747;49.524;8.390;2023-02-15T11:29:59;36.42;;;22.55;;
7338;SDS011;33747;49.524;8.390;2023-02-15T11:32:28;36.97;;;21.38;;
7338;SDS011;33747;49.524;8.390;2023-02-15T11:35:03;34.33;;;21.00;;
7338;SDS011;33747;49.524;8.390;2023-02-15T11:37:37;39.10;;;22.48;;
7338;SDS011;33747;49.524;8.390;2023-02-15T11:43:26;35.60;;;22.38;;
7338;SDS011;33747;49.524;8.390;2023-02-15T11:45:56;41.28;;;23.63;;
7338;SDS011;33747;49.524;8.390;2023-02-15T11:48:21;34.58;;;21.98;;
7338;SDS011;33747;49.524;8.390;2023-02-15T11:50:47;40.00;;;25.13;;
7338;SDS011;33747;49.524;8.390;2023-02-15T11:53:17;39.80;;;24.05;;
7338;SDS011;33747;49.524;8.390;2023-02-15T11:55:46;47.33;;;27.25;;
7338;SDS011;33747;49.524;8.390;2023-02-15T11:58:28;46.97;;;28.02;;
7338;SDS011;33747;49.524;8.390;2023-02-15T12:01:08;44.25;;;26.35;;
7338;SDS011;33747;49.524;8.390;2023-02-15T12:04:14;44.22;;;26.63;;
7338;SDS011;33747;49.524;8.390;2023-02-15T12:06:48;47.45;;;26.13;;
7338;SDS011;33747;49.524;8.390;2023-02-15T12:12:24;45.55;;;27.17;;
7338;SDS011;33747;49.524;8.390;2023-02-15T12:15:00;43.72;;;27.65;;
7338;SDS011;33747;49.524;8.390;2023-02-15T12:17:31;53.63;;;28.63;;
7338;SDS011;33747;49.524;8.390;2023-02-15T12:20:03;50.63;;;28.30;;
7338;SDS011;33747;49.524;8.390;2023-02-15T12:22:46;47.67;;;28.88;;
7338;SDS011;33747;49.524;8.390;2023-02-15T12:25:22;38.77;;;23.00;;
7338;SDS011;33747;49.524;8.390;2023-02-15T12:27:51;43.95;;;26.48;;
7338;SDS011;33747;49.524;8.390;2023-02-15T12:30:35;53.10;;;29.58;;
7338;SDS011;33747;49.524;8.390;2023-02-15T12:33:07;46.25;;;27.08;;
7338;SDS011;33747;49.524;8.390;2023-02-15T12:35:40;50.70;;;28.25;;
7338;SDS011;33747;49.524;8.390;2023-02-15T12:40:36;48.90;;;28.27;;
7338;SDS011;33747;49.524;8.390;2023-02-15T12:43:02;55.17;;;31.50;;
7338;SDS011;33747;49.524;8.390;2023-02-15T12:45:34;50.08;;;30.77;;
7338;SDS011;33747;49.524;8.390;2023-02-15T12:48:07;56.42;;;30.67;;
7338;SDS011;33747;49.524;8.390;2023-02-15T12:50:33;55.85;;;30.85;;
7338;SDS011;33747;49.524;8.390;2023-02-15T12:53:33;53.03;;;31.17;;
7338;SDS011;33747;49.524;8.390;2023-02-15T12:56:02;56.47;;;30.13;;
7338;SDS011;33747;49.524;8.390;2023-02-15T12:58:30;50.40;;;29.80;;
7338;SDS011;33747;49.524;8.390;2023-02-15T13:01:10;58.15;;;33.47;;
7338;SDS011;33747;49.524;8.390;2023-02-15T13:03:38;54.45;;;30.85;;
7338;SDS011;33747;49.524;8.390;2023-02-15T13:06:19;58.25;;;30.83;;
7338;SDS011;33747;49.524;8.390;2023-02-15T13:08:46;56.75;;;33.30;;
7338;SDS011;33747;49.524;8.390;2023-02-15T13:11:14;61.95;;;33.47;;
7338;SDS011;33747;49.524;8.390;2023-02-15T13:16:28;57.80;;;33.40;;
7338;SDS011;33747;49.524;8.390;2023-02-15T13:19:02;55.85;;;32.85;;
7338;SDS011;33747;49.524;8.390;2023-02-15T13:21:32;53.90;;;30.13;;
7338;SDS011;33747;49.524;8.390;2023-02-15T13:24:01;57.67;;;32.05;;
7338;SDS011;33747;49.524;8.390;2023-02-15T13:26:31;56.80;;;31.48;;
7338;SDS011;33747;49.524;8.390;2023-02-15T13:29:12;55.15;;;31.27;;
7338;SDS011;33747;49.524;8.390;2023-02-15T13:31:42;50.95;;;29.95;;
7338;SDS011;33747;49.524;8.390;2023-02-15T13:40:19;47.45;;;28.42;;
7338;SDS011;33747;49.524;8.390;2023-02-15T13:51:09;54.38;;;32.05;;
7338;SDS011;33747;49.524;8.390;2023-02-15T13:59:20;63.47;;;32.73;;
7338;SDS011;33747;49.524;8.390;2023-02-15T14:02:15;62.03;;;33.15;;
7338;SDS011;33747;49.524;8.390;2023-02-15T14:16:08;53.72;;;31.90;;
7338;SDS011;33747;49.524;8.390;2023-02-15T14:21:42;52.75;;;30.52;;
7338;SDS011;33747;49.524;8.390;2023-02-15T14:27:08;56.65;;;31.38;;
7338;SDS011;33747;49.524;8.390;2023-02-15T14:34:57;52.28;;;30.70;;
7338;SDS011;33747;49.524;8.390;2023-02-15T14:37:36;58.10;;;32.10;;
7338;SDS011;33747;49.524;8.390;2023-02-15T14:43:32;60.63;;;33.05;;
7338;SDS011;33747;49.524;8.390;2023-02-15T14:48:36;52.72;;;32.63;;
7338;SDS011;33747;49.524;8.390;2023-02-15T14:51:06;56.78;;;33.25;;
7338;SDS011;33747;49.524;8.390;2023-02-15T14:56:13;62.75;;;36.38;;
7338;SDS011;33747;49.524;8.390;2023-02-15T15:01:17;59.08;;;34.13;;
7338;SDS011;33747;49.524;8.390;2023-02-15T15:04:00;57.90;;;32.70;;
7338;SDS011;33747;49.524;8.390;2023-02-15T15:11:51;57.40;;;33.17;;
7338;SDS011;33747;49.524;8.390;2023-02-15T15:14:36;60.53;;;33.58;;
7338;SDS011;33747;49.524;8.390;2023-02-15T15:17:04;63.95;;;34.63;;
7338;SDS011;33747;49.524;8.390;2023-02-15T15:22:16;56.03;;;31.73;;
7338;SDS011;33747;49.524;8.390;2023-02-15T15:27:36;58.63;;;32.90;;
7338;SDS011;33747;49.524;8.390;2023-02-15T15:49:19;65.82;;;35.33;;
7338;SDS011;33747;49.524;8.390;2023-02-15T15:51:46;76.32;;;36.47;;
7338;SDS011;33747;49.524;8.390;2023-02-15T15:54:16;61.63;;;33.45;;
7338;SDS011;33747;49.524;8.390;2023-02-15T15:56:44;63.53;;;33.80;;
7338;SDS011;33747;49.524;8.390;2023-02-15T15:59:23;60.05;;;35.85;;
7338;SDS011;33747;49.524;8.390;2023-02-15T16:01:50;69.82;;;35.95;;
7338;SDS011;33747;49.524;8.390;2023-02-15T16:04:34;69.65;;;37.78;;
7338;SDS011;33747;49.524;8.390;2023-02-15T16:09:56;70.70;;;38.88;;
7338;SDS011;33747;49.524;8.390;2023-02-15T16:12:23;73.88;;;37.45;;
7338;SDS011;33747;49.524;8.390;2023-02-15T16:14:50;64.80;;;35.55;;
7338;SDS011;33747;49.524;8.390;2023-02-15T16:17:19;61.72;;;33.60;;
7338;SDS011;33747;49.524;8.390;2023-02-15T16:19:46;67.22;;;36.50;;
7338;SDS011;33747;49.524;8.390;2023-02-15T16:22:16;67.03;;;35.40;;
7338;SDS011;33747;49.524;8.390;2023-02-15T16:30:10;62.15;;;34.42;;
7338;SDS011;33747;49.524;8.390;2023-02-15T16:32:44;66.78;;;36.13;;
7338;SDS011;33747;49.524;8.390;2023-02-15T16:35:13;70.38;;;35.78;;
7338;SDS011;33747;49.524;8.390;2023-02-15T16:37:40;70.22;;;38.38;;
7338;SDS011;33747;49.524;8.390;2023-02-15T16:40:05;63.53;;;36.20;;
7338;SDS011;33747;49.524;8.390;2023-02-15T16:42:31;73.90;;;36.17;;
7338;SDS011;33747;49.524;8.390;2023-02-15T16:45:01;67.45;;;34.50;;
7338;SDS011;33747;49.524;8.390;2023-02-15T16:47:28;66.78;;;35.17;;
7338;SDS011;33747;49.524;8.390;2023-02-15T16:49:57;79.57;;;36.33;;
7338;SDS011;33747;49.524;8.390;2023-02-15T16:52:24;67.57;;;33.05;;
7338;SDS011;33747;49.524;8.390;2023-02-15T16:54:55;63.42;;;33.00;;
7338;SDS011;33747;49.524;8.390;2023-02-15T16:57:28;71.72;;;36.45;;
7338;SDS011;33747;49.524;8.390;2023-02-15T16:59:57;64.00;;;33.92;;
7338;SDS011;33747;49.524;8.390;2023-02-15T17:02:29;62.22;;;33.85;;
7338;SDS011;33747;49.524;8.390;2023-02-15T17:05:05;64.72;;;34.72;;
7338;SDS011;33747;49.524;8.390;2023-02-15T17:07:43;71.82;;;37.30;;
7338;SDS011;33747;49.524;8.390;2023-02-15T17:10:36;71.82;;;36.80;;
7338;SDS011;33747;49.524;8.390;2023-02-15T17:13:12;72.85;;;36.60;;
7338;SDS011;33747;49.524;8.390;2023-02-15T17:15:42;77.50;;;38.38;;
7338;SDS011;33747;49.524;8.390;2023-02-15T17:26:01;76.57;;;37.88;;
7338;SDS011;33747;49.524;8.390;2023-02-15T17:28:36;77.63;;;38.47;;
7338;SDS011;33747;49.524;8.390;2023-02-15T17:31:01;80.18;;;38.92;;
7338;SDS011;33747;49.524;8.390;2023-02-15T17:36:11;73.57;;;37.50;;
7338;SDS011;33747;49.524;8.390;2023-02-15T17:41:34;87.03;;;41.08;;
7338;SDS011;33747;49.524;8.390;2023-02-15T17:44:02;78.82;;;37.97;;
7338;SDS011;33747;49.524;8.390;2023-02-15T17:46:28;71.90;;;38.00;;
7338;SDS011;33747;49.524;8.390;2023-02-15T17:48:59;70.65;;;37.80;;
7338;SDS011;33747;49.524;8.390;2023-02-15T17:51:25;71.03;;;36.38;;
7338;SDS011;33747;49.524;8.390;2023-02-15T17:53:50;74.47;;;37.45;;
7338;SDS011;33747;49.524;8.390;2023-02-15T17:56:35;71.75;;;36.17;;
7338;SDS011;33747;49.524;8.390;2023-02-15T17:59:01;67.90;;;34.80;;
7338;SDS011;33747;49.524;8.390;2023-02-15T18:01:31;68.50;;;36.40;;
7338;SDS011;33747;49.524;8.390;2023-02-15T18:04:15;71.38;;;36.25;;
7338;SDS011;33747;49.524;8.390;2023-02-15T18:06:59;69.55;;;35.88;;
7338;SDS011;33747;49.524;8.390;2023-02-15T18:09:43;71.38;;;35.17;;
7338;SDS011;33747;49.524;8.390;2023-02-15T18:12:28;70.85;;;35.13;;
7338;SDS011;33747;49.524;8.390;2023-02-15T18:14:55;61.72;;;32.20;;